Time;durP1;ratioP1;P1;durP2;ratioP2;P2;SDS_P1;SDS_P2;PMS_P1;PMS_P2;Temp;Humidity;BMP_temperature;BMP_pressure;BME280_temperature;BME280_humidity;BME280_pressure;Samples;Min_cycle;Max_cycle;Signal;HPM_P1;HPM_P2
2020/12/12 00:00:40;;;;;;;17.17;10.50;;;;;;;1.62;100.00;96415.10;3818594;77;43749;-21
2020/12/12 00:05:47;;;;;;;16.80;10.43;;;;;;;1.56;100.00;96410.91;3779213;77;43396;-21
2020/12/12 00:10:54;;;;;;;16.83;10.57;;;;;;;1.54;100.00;96416.34;3785196;77;43250;-20
2020/12/12 00:16:00;;;;;;;18.73;10.67;;;;;;;1.57;100.00;96411.25;3813750;76;44050;-20
2020/12/12 00:21:06;;;;;;;16.93;10.90;;;;;;;1.59;100.00;96406.12;3814479;76;44485;-19
2020/12/12 00:26:12;;;;;;;16.67;10.63;;;;;;;1.54;100.00;96403.93;3797696;77;43718;-20
2020/12/12 00:31:19;;;;;;;17.47;10.50;;;;;;;1.59;100.00;96406.12;3789967;77;42606;-20
2020/12/12 00:36:27;;;;;;;19.30;11.63;;;;;;;1.61;100.00;96395.34;3763863;77;43970;-20
2020/12/12 00:41:36;;;;;;;18.17;11.20;;;;;;;1.63;100.00;96402.66;3620663;80;43496;-19
2020/12/12 00:46:44;;;;;;;18.57;11.03;;;;;;;1.68;100.00;96397.73;3779058;76;43034;-20
2020/12/12 00:51:50;;;;;;;17.53;11.00;;;;;;;1.73;100.00;96402.56;3791997;77;43329;-20
2020/12/12 00:56:56;;;;;;;17.10;10.40;;;;;;;1.74;100.00;96398.92;3775477;76;43329;-20
2020/12/12 01:02:02;;;;;;;17.27;10.40;;;;;;;1.76;100.00;96401.75;3762545;77;43716;-19
2020/12/12 01:07:09;;;;;;;17.77;10.63;;;;;;;1.79;100.00;96399.27;3663153;80;43196;-19
2020/12/12 01:12:16;;;;;;;16.13;10.37;;;;;;;1.83;100.00;96401.97;3774608;76;44460;-20
2020/12/12 01:17:23;;;;;;;16.23;10.17;;;;;;;1.80;100.00;96404.45;3803031;78;43358;-19
2020/12/12 01:22:29;;;;;;;18.80;11.00;;;;;;;1.88;100.00;96393.52;3770533;77;44051;-20
2020/12/12 01:27:36;;;;;;;17.30;10.70;;;;;;;1.92;100.00;96400.20;3782653;76;44039;-19
2020/12/12 01:32:42;;;;;;;17.43;10.50;;;;;;;1.91;100.00;96394.55;3758620;76;43526;-20
2020/12/12 01:37:49;;;;;;;19.27;11.80;;;;;;;1.91;100.00;96398.02;3759222;76;44054;-19
2020/12/12 01:42:54;;;;;;;18.80;11.37;;;;;;;1.95;100.00;96394.55;3759850;77;44069;-19
2020/12/12 01:48:00;;;;;;;17.23;10.90;;;;;;;1.93;100.00;96400.03;3762068;77;43692;-19
2020/12/12 01:53:07;;;;;;;19.83;11.20;;;;;;;1.99;100.00;96398.57;3755734;77;43682;-19
2020/12/12 01:58:14;;;;;;;19.33;11.13;;;;;;;2.00;100.00;96390.44;3766795;77;44697;-20
2020/12/12 02:03:21;;;;;;;21.43;11.70;;;;;;;1.97;100.00;96398.73;3659727;79;43518;-20
2020/12/12 02:08:28;;;;;;;20.03;11.53;;;;;;;1.99;100.00;96395.91;3748892;77;44069;-19
2020/12/12 02:13:35;;;;;;;21.63;12.00;;;;;;;1.89;100.00;96396.02;3747647;77;44013;-20
2020/12/12 02:18:41;;;;;;;20.50;11.87;;;;;;;1.82;100.00;96384.37;3735344;77;43411;-20
2020/12/12 02:23:48;;;;;;;21.77;11.63;;;;;;;1.87;100.00;96390.53;3728321;77;44483;-20
2020/12/12 02:28:55;;;;;;;19.70;11.87;;;;;;;1.83;100.00;96391.34;3729142;77;42991;-20
2020/12/12 02:34:01;;;;;;;20.60;11.80;;;;;;;1.83;100.00;96386.85;3742572;77;43448;-19
2020/12/12 02:39:08;;;;;;;20.93;11.77;;;;;;;1.82;100.00;96392.33;3747595;77;44103;-20
2020/12/12 02:44:14;;;;;;;21.47;12.23;;;;;;;1.82;100.00;96385.19;3736357;77;43513;-20
2020/12/12 02:49:20;;;;;;;21.57;12.43;;;;;;;1.82;100.00;96383.86;3738811;77;44486;-20
2020/12/12 02:54:25;;;;;;;21.77;12.07;;;;;;;1.77;100.00;96384.84;3757181;78;43379;-20
2020/12/12 02:59:31;;;;;;;21.30;12.17;;;;;;;1.82;100.00;96390.49;3750044;77;44102;-20
2020/12/12 03:04:37;;;;;;;23.37;12.63;;;;;;;1.84;100.00;96389.03;3737767;77;43690;-20
2020/12/12 03:09:43;;;;;;;23.17;12.43;;;;;;;1.81;100.00;96388.86;3739738;77;44046;-20
2020/12/12 03:14:49;;;;;;;22.50;13.40;;;;;;;1.85;100.00;96382.22;3750575;77;44050;-19
2020/12/12 03:19:55;;;;;;;23.90;13.20;;;;;;;1.89;100.00;96377.94;3727408;78;44151;-20
2020/12/12 03:25:01;;;;;;;22.47;12.13;;;;;;;1.80;100.00;96377.05;3737748;77;43374;-21
2020/12/12 03:30:07;;;;;;;24.43;13.27;;;;;;;1.87;100.00;96377.25;3740101;77;44069;-37
2020/12/12 03:35:13;;;;;;;21.33;11.83;;;;;;;1.89;100.00;96377.94;3726113;77;43337;-21
2020/12/12 03:40:22;;;;;;;21.17;12.43;;;;;;;1.91;100.00;96377.29;3720712;77;43240;-21
2020/12/12 03:45:26;;;;;;;25.93;13.77;;;;;;;1.92;100.00;96382.94;3763319;77;44197;-20
2020/12/12 03:50:32;;;;;;;23.67;13.63;;;;;;;1.93;100.00;96377.97;3767964;77;42894;-20
2020/12/12 03:55:38;;;;;;;22.37;12.97;;;;;;;1.93;100.00;96380.12;3753464;77;43324;-21
2020/12/12 04:00:44;;;;;;;27.17;14.27;;;;;;;1.98;100.00;96376.98;3758338;77;44519;-21
2020/12/12 04:05:51;;;;;;;24.50;13.87;;;;;;;1.94;100.00;96382.30;3757212;77;43710;-21
2020/12/12 04:10:57;;;;;;;23.03;12.30;;;;;;;1.89;100.00;96382.73;3747906;77;43757;-21
2020/12/12 04:16:04;;;;;;;25.33;13.30;;;;;;;1.92;100.00;96382.43;3736874;77;43144;-21
2020/12/12 04:21:10;;;;;;;24.33;13.03;;;;;;;1.96;100.00;96392.23;3738362;77;44075;-20
2020/12/12 04:26:16;;;;;;;23.77;12.77;;;;;;;1.99;100.00;96383.48;3731621;77;44642;-21
2020/12/12 04:31:23;;;;;;;22.53;12.30;;;;;;;2.00;100.00;96389.11;3725653;77;44061;-21
2020/12/12 04:36:32;;;;;;;24.87;13.23;;;;;;;2.04;100.00;96396.28;3740564;77;44127;-21
2020/12/12 04:41:41;;;;;;;24.10;13.63;;;;;;;2.03;100.00;96391.97;3742477;77;44053;-21
2020/12/12 04:46:49;;;;;;;21.73;11.70;;;;;;;2.05;100.00;96388.66;3725766;78;44440;-20
2020/12/12 04:51:56;;;;;;;24.93;13.53;;;;;;;2.04;100.00;96390.98;3753116;77;44438;-20
2020/12/12 04:57:04;;;;;;;23.57;13.20;;;;;;;1.97;100.00;96400.55;3755805;77;44133;-20
2020/12/12 05:02:12;;;;;;;27.00;13.87;;;;;;;1.96;100.00;96398.39;3752682;77;42975;-20
2020/12/12 05:07:18;;;;;;;25.30;13.73;;;;;;;1.97;100.00;96395.23;3720180;78;44076;-20
2020/12/12 05:12:25;;;;;;;22.77;12.73;;;;;;;1.96;100.00;96393.56;3722656;77;44250;-20
2020/12/12 05:17:31;;;;;;;23.60;12.20;;;;;;;1.95;100.00;96396.73;3723593;78;43293;-20
2020/12/12 05:22:38;;;;;;;23.13;12.93;;;;;;;1.92;100.00;96386.41;3742563;77;44015;-20
2020/12/12 05:27:44;;;;;;;22.70;12.23;;;;;;;1.92;100.00;96391.72;3743397;77;44799;-20
2020/12/12 05:32:50;;;;;;;22.83;12.63;;;;;;;1.91;100.00;96393.22;3748594;77;43416;-20
2020/12/12 05:37:56;;;;;;;23.63;13.23;;;;;;;1.89;100.00;96393.87;3734924;77;43351;-20
2020/12/12 05:43:04;;;;;;;25.43;12.90;;;;;;;1.87;100.00;96399.83;3733777;77;43361;-20
2020/12/12 05:48:12;;;;;;;22.83;12.43;;;;;;;1.84;100.00;96393.83;3711106;78;44035;-20
2020/12/12 05:53:18;;;;;;;22.87;12.77;;;;;;;1.85;100.00;96400.81;3706121;78;44407;-20
2020/12/12 05:58:25;;;;;;;22.07;12.13;;;;;;;1.89;100.00;96399.17;3722006;78;43964;-20
2020/12/12 06:03:33;;;;;;;21.27;11.57;;;;;;;1.90;100.00;96393.70;3731278;78;44057;-24
2020/12/12 06:08:40;;;;;;;24.27;12.80;;;;;;;1.89;100.00;96398.67;3739504;78;44076;-24
2020/12/12 06:13:47;;;;;;;20.10;10.87;;;;;;;1.89;100.00;96410.61;3732160;78;43716;-25
2020/12/12 06:19:00;;;;;;;19.70;11.27;;;;;;;1.90;100.00;96410.14;3730379;78;44601;-24
2020/12/12 06:24:09;;;;;;;22.80;12.03;;;;;;;1.94;100.00;96407.52;3715955;78;43714;-24
2020/12/12 06:29:17;;;;;;;21.43;11.67;;;;;;;1.92;100.00;96400.20;3721214;78;44486;-24
2020/12/12 06:34:42;;;;;;;22.37;12.00;;;;;;;1.97;100.00;96408.52;3717653;78;43402;-25
2020/12/12 06:39:48;;;;;;;20.70;11.90;;;;;;;1.91;100.00;96409.16;3698502;78;43676;-25
2020/12/12 06:44:55;;;;;;;24.10;12.53;;;;;;;1.90;100.00;96415.45;3708019;78;43103;-25
2020/12/12 06:50:11;;;;;;;20.87;11.63;;;;;;;1.91;100.00;96423.75;3723252;79;43394;-25
2020/12/12 06:55:19;;;;;;;20.60;11.23;;;;;;;1.92;100.00;96425.42;3716629;79;43714;-25
2020/12/12 07:00:34;;;;;;;22.27;12.23;;;;;;;1.91;100.00;96431.72;3732512;78;44074;-25
2020/12/12 07:05:41;;;;;;;23.90;13.17;;;;;;;1.86;100.00;96430.87;3695751;78;43423;-24
2020/12/12 07:10:47;;;;;;;25.97;13.23;;;;;;;1.88;100.00;96441.32;3714000;78;44452;-25
2020/12/12 07:15:54;;;;;;;24.23;13.23;;;;;;;1.89;100.00;96445.64;3719474;78;44579;-25
2020/12/12 07:21:01;;;;;;;24.17;12.37;;;;;;;1.92;100.00;96441.36;3734057;78;43378;-26
2020/12/12 07:26:07;;;;;;;23.97;13.13;;;;;;;1.93;100.00;96444.35;3715114;78;43675;-26
2020/12/12 07:31:13;;;;;;;22.97;12.53;;;;;;;1.91;100.00;96450.31;3737637;78;43416;-25
2020/12/12 07:36:20;;;;;;;24.87;13.17;;;;;;;1.97;100.00;96453.66;3729769;78;44960;-25
2020/12/12 07:41:26;;;;;;;22.37;12.27;;;;;;;2.03;100.00;96459.69;3727397;78;43636;-26
2020/12/12 07:46:38;;;;;;;23.10;12.67;;;;;;;2.07;100.00;96462.34;3739615;77;43745;-26
2020/12/12 07:51:45;;;;;;;23.37;12.47;;;;;;;2.09;100.00;96458.23;3724358;77;43099;-26
2020/12/12 07:56:54;;;;;;;23.37;12.70;;;;;;;2.16;100.00;96464.56;3725977;77;44436;-26
2020/12/12 08:02:07;;;;;;;21.80;11.30;;;;;;;2.25;100.00;96473.42;3744945;77;43441;-25
2020/12/12 08:07:16;;;;;;;21.83;11.73;;;;;;;2.29;100.00;96478.27;3758210;77;44026;-26
2020/12/12 08:12:30;;;;;;;24.43;13.17;;;;;;;2.32;100.00;96486.41;3759069;77;44184;-26
2020/12/12 08:17:36;;;;;;;23.13;12.47;;;;;;;2.37;100.00;96481.95;3753577;77;43382;-26
2020/12/12 08:22:43;;;;;;;23.07;12.20;;;;;;;2.41;100.00;96494.76;3745772;77;43995;-25
2020/12/12 08:27:52;;;;;;;24.27;12.40;;;;;;;2.44;100.00;96499.77;3731513;77;44027;-26
2020/12/12 08:33:00;;;;;;;23.40;13.33;;;;;;;2.49;100.00;96506.45;3735991;77;44161;-26
2020/12/12 08:38:11;;;;;;;22.43;12.87;;;;;;;2.55;100.00;96507.12;3736017;77;42850;-26
2020/12/12 08:43:17;;;;;;;24.63;13.13;;;;;;;2.57;100.00;96510.47;3745029;77;43725;-26
2020/12/12 08:48:31;;;;;;;21.83;12.57;;;;;;;2.57;100.00;96515.30;3761780;77;44161;-26
2020/12/12 08:53:39;;;;;;;24.63;12.97;;;;;;;2.65;100.00;96509.68;3813134;76;43688;-26
2020/12/12 08:58:49;;;;;;;24.33;12.73;;;;;;;2.65;100.00;96517.14;3806840;76;44034;-27
2020/12/12 09:04:01;;;;;;;22.50;12.63;;;;;;;2.73;100.00;96517.69;3798831;77;43427;-26
2020/12/12 09:09:15;;;;;;;25.57;13.03;;;;;;;2.80;100.00;96529.38;3781122;76;44030;-26
2020/12/12 09:14:21;;;;;;;22.30;12.17;;;;;;;2.80;100.00;96534.69;3805121;76;44183;-26
2020/12/12 09:19:28;;;;;;;20.67;12.00;;;;;;;2.94;100.00;96537.23;3797122;77;44205;-25
2020/12/12 09:24:35;;;;;;;23.17;11.83;;;;;;;3.06;100.00;96537.77;3808481;76;44014;-26
2020/12/12 09:29:40;;;;;;;23.87;12.73;;;;;;;3.16;100.00;96547.80;3815666;76;44067;-27
2020/12/12 09:34:46;;;;;;;22.10;12.17;;;;;;;3.23;100.00;96554.14;3813691;76;44025;-26
2020/12/12 09:39:52;;;;;;;21.43;12.47;;;;;;;3.30;100.00;96553.00;3803024;76;43316;-27
2020/12/12 09:44:58;;;;;;;21.73;12.90;;;;;;;3.34;100.00;96560.16;3811340;76;44037;-26
2020/12/12 09:50:04;;;;;;;22.70;12.37;;;;;;;3.38;100.00;96562.84;3797422;76;44055;-26
2020/12/12 09:55:10;;;;;;;23.53;13.40;;;;;;;3.37;100.00;96565.98;3783511;76;44772;-26
2020/12/12 10:00:16;;;;;;;20.20;11.73;;;;;;;3.50;100.00;96575.33;3825713;76;44064;-26
2020/12/12 10:05:22;;;;;;;23.07;14.10;;;;;;;3.50;100.00;96571.34;3817828;76;43399;-26
2020/12/12 10:10:30;;;;;;;24.47;13.73;;;;;;;3.52;100.00;96569.36;3814971;77;43348;-27
2020/12/12 10:15:37;;;;;;;22.40;12.90;;;;;;;3.64;100.00;96579.22;3804503;76;44384;-26
2020/12/12 10:20:43;;;;;;;21.70;12.17;;;;;;;3.73;100.00;96577.38;3793968;76;44355;-26
2020/12/12 10:25:52;;;;;;;19.57;12.00;;;;;;;3.77;100.00;96584.88;3791098;76;43253;-26
2020/12/12 10:30:58;;;;;;;19.10;11.10;;;;;;;3.90;100.00;96588.89;3777394;76;43285;-25
2020/12/12 10:36:04;;;;;;;22.67;13.13;;;;;;;4.02;100.00;96583.58;3788468;77;44055;-27
2020/12/12 10:41:12;;;;;;;21.00;12.37;;;;;;;4.25;100.00;96587.77;3789139;77;44016;-26
2020/12/12 10:46:17;;;;;;;21.07;12.60;;;;;;;4.30;100.00;96588.08;3793253;77;44411;-26
2020/12/12 10:51:24;;;;;;;21.37;11.40;;;;;;;4.39;100.00;96600.09;3733259;78;43479;-26
2020/12/12 10:56:31;;;;;;;19.10;11.03;;;;;;;4.41;100.00;96596.77;3715886;78;43380;-26
2020/12/12 11:01:38;;;;;;;19.63;11.67;;;;;;;4.42;100.00;96595.25;3729356;78;44024;-25
2020/12/12 11:06:45;;;;;;;21.93;12.57;;;;;;;4.45;100.00;96600.27;3748515;77;43674;-25
2020/12/12 11:11:52;;;;;;;20.20;12.17;;;;;;;4.47;100.00;96598.23;3765303;77;44055;-25
2020/12/12 11:16:58;;;;;;;20.63;11.97;;;;;;;4.39;100.00;96595.58;3728757;78;44150;-25
2020/12/12 11:22:04;;;;;;;18.60;11.00;;;;;;;4.48;100.00;96592.41;3738796;77;44039;-25
2020/12/12 11:27:09;;;;;;;17.77;11.07;;;;;;;4.51;100.00;96593.42;3759650;77;44248;-25
2020/12/12 11:32:16;;;;;;;19.03;11.50;;;;;;;4.57;100.00;96594.58;3757939;77;43478;-25
2020/12/12 11:37:30;;;;;;;18.73;11.17;;;;;;;4.55;100.00;96596.06;3752088;77;43995;-25
2020/12/12 11:42:58;;;;;;;21.37;11.60;;;;;;;4.51;100.00;96592.09;3758872;77;44075;-25
2020/12/12 11:47:54;;;;;;;21.00;12.43;;;;;;;4.77;100.00;96593.69;3729817;77;43730;-25
2020/12/12 11:53:00;;;;;;;21.10;11.43;;;;;;;4.71;100.00;96601.05;3708956;78;44062;-26
2020/12/12 11:58:06;;;;;;;17.50;11.20;;;;;;;4.74;100.00;96602.05;3737795;78;44149;-26
2020/12/12 12:03:13;;;;;;;17.20;10.60;;;;;;;4.83;100.00;96604.19;3739178;78;43420;-25
2020/12/12 12:08:27;;;;;;;18.77;11.40;;;;;;;4.65;100.00;96603.05;3738859;78;43697;-25
2020/12/12 12:13:34;;;;;;;18.10;11.43;;;;;;;4.74;100.00;96607.39;3724979;78;44029;-25
2020/12/12 12:18:41;;;;;;;20.27;11.30;;;;;;;4.83;100.00;96602.84;3692122;78;44715;-25
2020/12/12 12:23:47;;;;;;;20.73;11.43;;;;;;;4.89;100.00;96615.02;3736916;78;43337;-25
2020/12/12 12:28:53;;;;;;;18.67;11.43;;;;;;;4.84;100.00;96621.38;3729168;78;42924;-25
2020/12/12 12:34:04;;;;;;;17.93;11.50;;;;;;;4.77;100.00;96635.89;3718950;78;43937;-25
2020/12/12 12:39:11;;;;;;;20.37;11.90;;;;;;;4.73;100.00;96639.06;3732861;78;44280;-25
2020/12/12 12:44:16;;;;;;;19.00;11.70;;;;;;;4.73;100.00;96640.40;3736173;78;43708;-26
2020/12/12 12:49:22;;;;;;;19.33;11.47;;;;;;;4.69;100.00;96647.91;3747198;77;43317;-25
2020/12/12 12:54:29;;;;;;;21.47;11.37;;;;;;;4.61;100.00;96644.75;3751707;77;43373;-25
2020/12/12 12:59:34;;;;;;;19.90;11.67;;;;;;;4.66;100.00;96647.39;3752424;77;43491;-25
2020/12/12 13:04:41;;;;;;;17.97;11.27;;;;;;;4.69;100.00;96645.73;3758491;77;44720;-25
2020/12/12 13:09:49;;;;;;;19.73;12.07;;;;;;;4.51;100.00;96645.42;3750120;79;43673;-25
2020/12/12 13:14:54;;;;;;;19.83;11.53;;;;;;;4.45;100.00;96651.41;3750164;79;44026;-25
2020/12/12 13:20:10;;;;;;;19.57;11.30;;;;;;;4.40;100.00;96648.42;3758443;77;42814;-26
2020/12/12 13:25:11;;;;;;;21.33;12.00;;;;;;;4.27;100.00;96657.73;3754267;77;44479;-26
2020/12/12 13:30:19;;;;;;;21.33;11.97;;;;;;;4.25;100.00;96661.55;3757999;77;43687;-26
2020/12/12 13:35:25;;;;;;;21.87;12.70;;;;;;;4.32;100.00;96667.91;3747265;77;43722;-26
2020/12/12 13:40:31;;;;;;;23.30;13.53;;;;;;;4.32;100.00;96674.05;3756779;77;43381;-27
2020/12/12 13:45:37;;;;;;;20.93;12.13;;;;;;;4.35;100.00;96677.39;3749900;77;44019;-26
2020/12/12 13:50:43;;;;;;;22.17;12.80;;;;;;;4.36;100.00;96683.88;3742152;77;43698;-27
2020/12/12 13:55:50;;;;;;;20.77;12.23;;;;;;;4.35;100.00;96686.73;3720334;78;43661;-26
2020/12/12 14:00:57;;;;;;;20.83;12.57;;;;;;;4.43;100.00;96696.91;3724932;78;43694;-27
2020/12/12 14:06:07;;;;;;;20.80;12.20;;;;;;;4.37;100.00;96707.39;3746201;78;43320;-26
2020/12/12 14:11:43;;;;;;;20.97;11.80;;;;;;;4.34;100.00;96706.38;3736145;78;43217;-26
2020/12/12 14:33:10;;;;;;;21.57;12.27;;;;;;;4.34;100.00;96725.89;3734086;78;43397;-26
2020/12/12 14:38:16;;;;;;;20.90;12.17;;;;;;;4.27;100.00;96732.38;3733755;78;43459;-26
2020/12/12 14:43:22;;;;;;;19.30;11.53;;;;;;;4.29;100.00;96739.69;3726150;78;417846;-26
2020/12/12 14:48:27;;;;;;;20.63;11.87;;;;;;;4.29;100.00;96743.69;3709774;79;44387;-27
2020/12/12 14:53:33;;;;;;;23.47;13.37;;;;;;;4.30;100.00;96750.69;3691747;79;44466;-26
2020/12/12 14:58:39;;;;;;;21.33;12.37;;;;;;;4.27;100.00;96755.03;3731309;77;44082;-26
2020/12/12 15:03:45;;;;;;;22.70;12.40;;;;;;;4.25;100.00;96763.69;3713070;77;43943;-26
2020/12/12 15:08:52;;;;;;;22.10;12.27;;;;;;;4.28;100.00;96771.36;3712219;77;43746;-26
2020/12/12 15:13:59;;;;;;;20.20;11.10;;;;;;;4.32;100.00;96778.53;3712177;77;44047;-26
2020/12/12 15:19:05;;;;;;;21.33;12.30;;;;;;;4.25;100.00;96783.67;3691470;79;43721;-26
2020/12/12 15:24:12;;;;;;;20.57;12.40;;;;;;;4.31;100.00;96792.34;3726116;77;44091;-25
2020/12/12 15:29:18;;;;;;;21.67;12.63;;;;;;;4.33;100.00;96797.53;3725508;77;43294;-25
2020/12/12 15:34:25;;;;;;;20.70;11.87;;;;;;;4.30;100.00;96805.34;3712187;77;44740;-25
2020/12/12 15:39:34;;;;;;;20.67;11.67;;;;;;;4.29;100.00;96808.99;3715055;77;42938;-26
2020/12/12 15:44:40;;;;;;;21.60;12.27;;;;;;;4.26;100.00;96814.67;3715404;77;44135;-23
2020/12/12 15:49:47;;;;;;;22.00;13.10;;;;;;;4.26;100.00;96822.67;3706517;77;43447;-24
2020/12/12 15:54:55;;;;;;;21.43;12.93;;;;;;;4.25;100.00;96830.80;3694228;78;43086;-26
2020/12/12 16:00:01;;;;;;;22.23;13.33;;;;;;;4.27;100.00;96833.67;3694338;78;44150;-26
2020/12/12 16:05:10;;;;;;;20.83;12.10;;;;;;;4.24;100.00;96839.31;3700874;78;26736;-26
2020/12/12 16:10:16;;;;;;;23.03;12.77;;;;;;;4.21;100.00;96840.95;3710867;78;44504;-24
2020/12/12 16:15:22;;;;;;;24.30;13.17;;;;;;;4.20;100.00;96847.28;3703542;78;43681;-26
2020/12/12 16:20:28;;;;;;;21.20;12.80;;;;;;;4.20;100.00;96851.28;3693918;78;43327;-26
2020/12/12 16:25:34;;;;;;;22.50;13.03;;;;;;;4.21;100.00;96860.13;3679165;78;43694;-26
2020/12/12 16:30:39;;;;;;;23.33;13.47;;;;;;;4.14;100.00;96859.93;3734861;78;44545;-26
2020/12/12 16:35:47;;;;;;;25.83;14.30;;;;;;;4.16;100.00;96869.43;3723555;78;43726;-26
2020/12/12 16:40:53;;;;;;;28.90;15.60;;;;;;;4.13;100.00;96875.58;3700870;79;43555;-26
2020/12/12 16:46:00;;;;;;;29.90;15.33;;;;;;;4.17;100.00;96879.61;3709102;78;43494;-25
2020/12/12 16:51:06;;;;;;;25.37;14.80;;;;;;;4.14;100.00;96882.58;3706767;78;44693;-25
2020/12/12 16:56:12;;;;;;;29.03;17.00;;;;;;;4.10;100.00;96885.22;3738108;79;43298;-26
2020/12/12 17:01:18;;;;;;;26.20;15.10;;;;;;;3.98;100.00;96890.81;3712934;79;43408;-26
2020/12/12 17:06:27;;;;;;;25.17;13.30;;;;;;;4.03;100.00;96893.52;3720804;79;44019;-26
2020/12/12 17:11:33;;;;;;;25.93;14.23;;;;;;;4.01;100.00;96897.17;3724893;79;44043;-26
2020/12/12 17:16:39;;;;;;;31.03;16.97;;;;;;;3.98;100.00;96895.33;3718983;79;43721;-26
2020/12/12 17:21:46;;;;;;;28.63;16.00;;;;;;;4.00;100.00;96900.83;3724472;79;43685;-25
2020/12/12 17:26:55;;;;;;;26.37;14.53;;;;;;;3.99;100.00;96905.81;3718298;79;43684;-26
2020/12/12 17:32:01;;;;;;;27.37;14.60;;;;;;;3.99;100.00;96907.66;3715486;79;44085;-26
2020/12/12 17:37:07;;;;;;;30.47;16.10;;;;;;;3.90;100.00;96912.09;3730434;79;44006;-25
2020/12/12 17:42:14;;;;;;;25.33;15.10;;;;;;;3.94;100.00;96916.09;3712617;79;43427;-25
2020/12/12 17:47:21;;;;;;;29.13;16.50;;;;;;;3.85;100.00;96925.03;3730985;79;43436;-25
2020/12/12 17:52:27;;;;;;;27.53;15.70;;;;;;;3.85;100.00;96926.36;3723028;77;43677;-25
2020/12/12 17:57:37;;;;;;;27.53;16.27;;;;;;;3.83;100.00;96925.19;3730393;77;44129;-25
2020/12/12 18:02:43;;;;;;;27.17;15.83;;;;;;;3.84;100.00;96932.20;3729010;77;43964;-25
2020/12/12 18:07:50;;;;;;;34.73;19.33;;;;;;;3.85;100.00;96935.69;3741553;77;43243;-26
2020/12/12 18:12:56;;;;;;;30.17;16.87;;;;;;;3.86;100.00;96936.03;3725142;77;44598;-25
2020/12/12 18:18:03;;;;;;;31.90;20.43;;;;;;;3.85;100.00;96947.20;3740578;77;43616;-25
2020/12/12 18:23:09;;;;;;;26.90;15.30;;;;;;;3.81;100.00;96955.66;3750759;77;43393;-25
2020/12/12 18:28:15;;;;;;;26.97;14.93;;;;;;;3.76;100.00;96953.94;3662248;79;43698;-26
2020/12/12 18:33:21;;;;;;;26.70;14.77;;;;;;;3.83;100.00;96965.16;3635031;79;43709;-25
2020/12/12 18:38:27;;;;;;;26.63;14.57;;;;;;;3.85;100.00;96968.98;3735486;77;44706;-25
2020/12/12 18:43:33;;;;;;;28.73;16.40;;;;;;;3.83;100.00;96974.48;3738480;77;43468;-25
2020/12/12 18:48:39;;;;;;;27.33;17.07;;;;;;;3.82;100.00;96977.30;3637898;80;44559;-25
2020/12/12 18:53:45;;;;;;;23.87;14.13;;;;;;;3.80;100.00;96982.77;3606761;81;43084;-25
2020/12/12 18:58:51;;;;;;;26.67;15.00;;;;;;;3.76;100.00;96992.56;3614504;79;44059;-25
2020/12/12 19:03:57;;;;;;;24.20;13.50;;;;;;;3.81;100.00;96997.77;3620691;79;44367;-21
2020/12/12 19:09:05;;;;;;;30.83;17.60;;;;;;;3.81;100.00;97003.09;3630064;79;43474;-19
2020/12/12 19:14:11;;;;;;;28.67;15.83;;;;;;;3.84;100.00;97005.94;3646766;80;43405;-19
2020/12/12 19:19:17;;;;;;;28.07;16.30;;;;;;;3.81;100.00;97006.27;3644761;80;44151;-21
2020/12/12 19:24:23;;;;;;;33.60;19.60;;;;;;;3.89;100.00;97004.14;3642400;79;43562;-21
2020/12/12 19:29:29;;;;;;;27.17;16.03;;;;;;;3.88;100.00;97007.31;3641680;79;43380;-21
2020/12/12 19:34:35;;;;;;;28.50;16.03;;;;;;;3.88;100.00;97009.16;3653791;79;44790;-22
2020/12/12 19:39:41;;;;;;;29.10;16.53;;;;;;;3.80;100.00;97011.25;3640920;79;44084;-22
2020/12/12 19:44:49;;;;;;;27.13;16.40;;;;;;;3.77;100.00;97024.87;3628986;79;43681;-21
2020/12/12 19:49:55;;;;;;;27.60;15.97;;;;;;;3.81;100.00;97031.57;3668025;79;44074;-20
2020/12/12 19:55:02;;;;;;;28.77;16.27;;;;;;;3.76;100.00;97034.70;3598214;81;44082;-20
2020/12/12 20:00:07;;;;;;;27.27;15.37;;;;;;;3.76;100.00;97034.70;3693946;78;43677;-20
2020/12/12 20:05:14;;;;;;;32.90;17.90;;;;;;;3.72;100.00;97036.45;3675001;79;43492;-21
2020/12/12 20:10:20;;;;;;;29.80;16.73;;;;;;;3.74;100.00;97042.00;3672426;79;43726;-20
2020/12/12 20:15:26;;;;;;;29.77;16.90;;;;;;;3.73;100.00;97051.45;3674292;79;42449;-20
2020/12/12 20:20:32;;;;;;;31.40;17.33;;;;;;;3.76;100.00;97052.02;3668717;79;43682;-20
2020/12/12 20:25:39;;;;;;;27.43;15.33;;;;;;;3.76;100.00;97057.81;3665118;79;43456;-20
2020/12/12 20:30:45;;;;;;;28.70;14.40;;;;;;;3.78;100.00;97066.50;3676696;79;43431;-20
2020/12/12 20:35:51;;;;;;;29.43;16.47;;;;;;;3.72;100.00;97069.75;3667310;79;43399;-21
2020/12/12 20:40:57;;;;;;;28.60;16.10;;;;;;;3.66;100.00;97070.72;3656010;79;44123;-21
2020/12/12 20:46:03;;;;;;;25.43;16.03;;;;;;;3.72;100.00;97080.41;3658452;79;44111;-20
2020/12/12 20:51:09;;;;;;;28.67;15.47;;;;;;;3.77;100.00;97082.13;3668719;79;43330;-20
2020/12/12 20:56:15;;;;;;;27.87;15.50;;;;;;;3.72;100.00;97085.25;3648412;79;44035;-20
2020/12/12 21:01:22;;;;;;;28.30;15.73;;;;;;;3.77;100.00;97092.28;3646082;79;44911;-20
2020/12/12 21:06:30;;;;;;;27.90;15.90;;;;;;;3.74;100.00;97087.75;3622618;81;44065;-20
2020/12/12 21:11:36;;;;;;;27.37;15.20;;;;;;;3.73;100.00;97092.26;3590386;81;43420;-20
2020/12/12 21:16:41;;;;;;;28.27;15.10;;;;;;;3.75;100.00;97094.77;3564605;82;44017;-21
2020/12/12 21:21:48;;;;;;;23.37;13.30;;;;;;;3.77;100.00;97103.45;3564610;81;42857;-20
2020/12/12 21:26:54;;;;;;;26.90;15.63;;;;;;;3.72;100.00;97111.03;3569215;81;44033;-20
2020/12/12 21:32:02;;;;;;;26.43;14.93;;;;;;;3.74;100.00;97109.06;3563734;81;44635;-23
2020/12/12 21:37:09;;;;;;;25.47;14.17;;;;;;;3.76;100.00;97111.09;3567625;81;43694;-23
2020/12/12 21:42:18;;;;;;;25.33;14.40;;;;;;;3.81;100.00;97112.81;3566155;81;44049;-22
2020/12/12 21:47:24;;;;;;;27.57;15.23;;;;;;;3.79;100.00;97124.94;3586635;81;44005;-22
2020/12/12 21:52:31;;;;;;;22.97;13.73;;;;;;;3.83;100.00;97134.79;3580654;81;44068;-22
2020/12/12 21:57:38;;;;;;;27.17;14.33;;;;;;;3.83;100.00;97140.13;3504386;83;42861;-22
2020/12/12 22:02:46;;;;;;;25.67;14.33;;;;;;;3.83;100.00;97140.97;3499167;83;44048;-23
2020/12/12 22:07:59;;;;;;;27.50;14.57;;;;;;;3.90;100.00;97149.20;3502163;83;44849;-22
2020/12/12 22:13:04;;;;;;;23.57;13.70;;;;;;;3.87;100.00;97154.83;3476985;83;44038;-25
2020/12/12 22:18:11;;;;;;;27.97;17.23;;;;;;;3.91;100.00;97164.20;3497832;83;44883;-21
2020/12/12 22:23:17;;;;;;;24.23;14.10;;;;;;;3.88;100.00;97165.83;3510819;83;43227;-21
2020/12/12 22:28:23;;;;;;;24.23;13.87;;;;;;;3.90;100.00;97163.86;3499651;83;44112;-21
2020/12/12 22:33:30;;;;;;;21.20;12.30;;;;;;;3.90;100.00;97167.86;3509325;83;43750;-21
2020/12/12 22:38:35;;;;;;;23.73;13.50;;;;;;;3.88;100.00;97174.33;3552169;81;43681;-21
2020/12/12 22:43:41;;;;;;;25.50;14.30;;;;;;;3.87;100.00;97176.14;3531886;83;43681;-21
2020/12/12 22:48:47;;;;;;;22.87;13.43;;;;;;;3.89;100.00;97183.50;3542627;82;43041;-21
2020/12/12 22:53:53;;;;;;;20.70;12.90;;;;;;;3.82;100.00;97181.09;3579212;81;43685;-21
2020/12/12 22:58:59;;;;;;;23.43;12.93;;;;;;;3.80;100.00;97183.89;3660036;79;43347;-21
2020/12/12 23:04:04;;;;;;;21.77;12.67;;;;;;;3.81;100.00;97188.74;3674348;79;43706;-21
2020/12/12 23:09:10;;;;;;;23.60;13.70;;;;;;;3.80;100.00;97187.06;3636696;79;43423;-21
2020/12/12 23:14:16;;;;;;;21.30;12.40;;;;;;;3.81;100.00;97191.41;3668946;79;44420;-21
2020/12/12 23:19:22;;;;;;;25.67;13.77;;;;;;;3.79;100.00;97197.38;3636139;79;44203;-21
2020/12/12 23:24:28;;;;;;;22.73;12.87;;;;;;;3.78;100.00;97200.51;3648949;79;43686;-21
2020/12/12 23:29:34;;;;;;;25.17;13.37;;;;;;;3.74;100.00;97204.95;3697682;79;44089;-21
2020/12/12 23:34:39;;;;;;;28.07;15.30;;;;;;;3.74;100.00;97206.28;3682048;79;44137;-21
2020/12/12 23:39:45;;;;;;;25.80;14.90;;;;;;;3.65;100.00;97210.19;3673517;79;43722;-21
2020/12/12 23:44:53;;;;;;;23.33;13.57;;;;;;;3.67;100.00;97216.22;3661271;79;44023;-21